Time,TemperatureF,DewpointF,PressureIn,WindDirection,WindDirectionDegrees,WindSpeedMPH,WindSpeedGustMPH,Humidity,HourlyPrecipIn,Conditions,Clouds,dailyrainin,SoftwareType,DateUTC
2013-03-13 00:00:00,44.1,20.7,29.83,North,353,0.0,0.0,39,0.00,,---,0.00,VWS V14.01,2013-03-13 04:00:00,
2013-03-13 00:05:00,43.5,20.2,29.83,WSW,252,0.0,0.0,39,0.00,,---,0.00,VWS V14.01,2013-03-13 04:05:00,
2013-03-13 00:10:00,43.2,19.9,29.83,WSW,252,0.0,0.0,39,0.00,,---,0.00,VWS V14.01,2013-03-13 04:10:00,
2013-03-13 00:15:00,42.8,19.6,29.83,WSW,253,0.0,0.0,39,0.00,,---,0.00,VWS V14.01,2013-03-13 04:15:00,
2013-03-13 00:20:00,42.4,20.4,29.83,WSW,254,3.6,4.0,41,0.00,,---,0.00,VWS V14.01,2013-03-13 04:20:00,
2013-03-13 00:25:00,42.6,20.6,29.83,WSW,254,0.0,0.0,41,0.00,,---,0.00,VWS V14.01,2013-03-13 04:25:00,
2013-03-13 00:30:00,42.8,20.8,29.83,WNW,296,0.0,0.0,41,0.00,,---,0.00,VWS V14.01,2013-03-13 04:30:00,
2013-03-13 00:35:00,42.8,20.2,29.83,West,260,0.0,2.7,40,0.00,,---,0.00,VWS V14.01,2013-03-13 04:35:00,
2013-03-13 00:40:00,42.6,19.4,29.83,SW,222,3.1,3.1,39,0.00,,---,0.00,VWS V14.01,2013-03-13 04:40:00,
2013-03-13 00:45:00,42.4,19.2,29.83,SW,223,3.6,3.6,39,0.00,,---,0.00,VWS V14.01,2013-03-13 04:45:00,
2013-03-13 00:50:00,42.4,19.2,29.83,WNW,285,3.6,4.0,39,0.00,,---,0.00,VWS V14.01,2013-03-13 04:50:00,
2013-03-13 00:55:00,42.3,19.1,29.83,WNW,290,0.0,0.0,39,0.00,,---,0.00,VWS V14.01,2013-03-13 04:55:00,
2013-03-13 01:00:00,41.9,18.8,29.83,NW,304,0.0,0.0,39,0.00,,---,0.00,VWS V14.01,2013-03-13 05:00:00,
2013-03-13 01:05:00,41.4,18.3,29.83,WSW,240,6.3,6.3,39,0.00,,---,0.00,VWS V14.01,2013-03-13 05:05:00,
2013-03-13 01:10:00,41.0,18.0,29.83,WNW,286,2.2,2.7,39,0.00,,---,0.20,VWS V14.01,2013-03-13 05:10:00,
2013-03-13 01:15:00,41.0,18.0,29.83,SW,236,3.1,3.1,39,0.00,,---,0.00,VWS V14.01,2013-03-13 05:15:00,
2013-03-13 01:20:00,40.8,17.8,29.83,NW,306,4.9,4.9,39,0.00,,---,0.00,VWS V14.01,2013-03-13 05:20:00,
2013-03-13 01:25:00,40.6,17.6,29.83,SW,235,0.0,0.0,39,0.00,,---,0.00,VWS V14.01,2013-03-13 05:25:00,
2013-03-13 01:30:00,40.5,17.5,29.83,WNW,288,2.7,2.7,39,0.00,,---,0.00,VWS V14.01,2013-03-13 05:30:00,
2013-03-13 01:35:00,40.3,17.3,29.83,SW,231,0.0,0.0,39,0.00,,---,0.00,VWS V14.01,2013-03-13 05:35:00,
2013-03-13 01:40:00,39.9,17.0,29.83,West,261,2.7,4.9,39,0.00,,---,0.00,VWS V14.01,2013-03-13 05:40:00,
2013-03-13 01:45:00,39.7,16.8,29.83,SW,223,5.4,5.4,39,0.00,,---,0.00,VWS V14.01,2013-03-13 05:45:00,
2013-03-13 01:50:00,39.9,17.0,29.83,West,260,4.9,4.9,39,0.00,,---,0.00,VWS V14.01,2013-03-13 05:50:00,
2013-03-13 01:55:00,40.5,17.5,29.83,WSW,239,3.1,5.4,39,0.00,,---,0.00,VWS V14.01,2013-03-13 05:55:00,
2013-03-13 02:00:00,40.6,17.6,29.83,SW,235,2.7,2.7,39,0.00,,---,0.00,VWS V14.01,2013-03-13 06:00:00,
2013-03-13 02:05:00,40.5,17.5,29.83,SW,234,2.2,2.2,39,0.00,,---,0.00,VWS V14.01,2013-03-13 06:05:00,
2013-03-13 02:10:00,40.3,17.3,29.83,WSW,249,3.6,4.0,39,0.00,,---,0.00,VWS V14.01,2013-03-13 06:10:00,
2013-03-13 02:15:00,40.1,17.1,29.83,West,261,4.0,4.0,39,0.00,,---,0.00,VWS V14.01,2013-03-13 06:15:00,
2013-03-13 02:20:00,40.1,17.1,29.83,SW,225,0.0,0.0,39,0.00,,---,0.00,VWS V14.01,2013-03-13 06:20:00,
2013-03-13 02:25:00,40.1,17.1,29.83,NNW,338,0.0,0.0,39,0.00,,---,0.00,VWS V14.01,2013-03-13 06:25:00,
2013-03-13 02:30:00,39.9,17.0,29.85,WNW,299,0.0,0.0,39,0.00,,---,0.00,VWS V14.01,2013-03-13 06:30:00,
2013-03-13 02:35:00,39.9,17.0,29.85,NNW,339,0.0,0.0,39,0.00,,---,0.00,VWS V14.01,2013-03-13 06:35:00,
2013-03-13 02:40:00,39.9,17.0,29.85,SSW,201,0.0,0.0,39,0.00,,---,0.00,VWS V14.01,2013-03-13 06:40:00,
2013-03-13 02:45:00,39.6,16.7,29.85,SW,221,2.7,2.7,39,0.00,,---,0.00,VWS V14.01,2013-03-13 06:45:00,
2013-03-13 02:50:00,39.2,16.3,29.85,NNE,26,3.1,3.1,39,0.00,,---,0.00,VWS V14.01,2013-03-13 06:50:00,
2013-03-13 02:55:00,39.2,16.3,29.83,NW,304,0.0,0.0,39,0.00,,---,0.00,VWS V14.01,2013-03-13 06:55:00,
2013-03-13 03:00:00,38.8,16.6,29.83,WNW,282,3.6,3.6,40,0.00,,---,0.00,VWS V14.01,2013-03-13 07:00:00,
2013-03-13 03:05:00,38.8,16.0,29.83,North,9,3.1,5.4,39,0.00,,---,0.00,VWS V14.01,2013-03-13 07:05:00,
2013-03-13 03:10:00,38.8,16.0,29.83,SSW,211,2.2,2.2,39,0.00,,---,0.00,VWS V14.01,2013-03-13 07:10:00,
2013-03-13 03:15:00,38.5,15.7,29.83,SW,228,0.0,0.0,39,0.00,,---,0.00,VWS V14.01,2013-03-13 07:15:00,
2013-03-13 03:20:00,38.5,15.7,29.83,NNW,342,2.7,2.7,39,0.00,,---,0.00,VWS V14.01,2013-03-13 07:20:00,
2013-03-13 03:25:00,38.8,16.0,29.83,WSW,243,4.0,5.8,39,0.00,,---,0.00,VWS V14.01,2013-03-13 07:25:00,
2013-03-13 03:30:00,38.5,15.7,29.83,WSW,252,2.7,2.7,39,0.00,,---,0.00,VWS V14.01,2013-03-13 07:30:00,
2013-03-13 03:36:00,38.5,15.7,29.83,SW,227,5.4,5.4,39,0.00,,---,0.00,VWS V14.01,2013-03-13 07:36:00,
2013-03-13 03:41:00,38.5,15.7,29.83,WNW,283,2.7,3.6,39,0.00,,---,0.00,VWS V14.01,2013-03-13 07:41:00,
2013-03-13 03:46:00,38.5,15.7,29.83,SW,232,4.9,4.9,39,0.00,,---,0.00,VWS V14.01,2013-03-13 07:46:00,
2013-03-13 03:51:00,39.0,16.2,29.83,West,281,2.7,3.6,39,0.00,,---,0.00,VWS V14.01,2013-03-13 07:51:00,
2013-03-13 03:56:00,38.8,16.0,29.83,North,0,0.0,4.0,39,0.00,,---,0.00,VWS V14.01,2013-03-13 07:56:00,
2013-03-13 04:01:00,39.0,16.2,29.83,NNW,331,0.0,0.0,39,0.00,,---,0.00,VWS V14.01,2013-03-13 08:01:00,
2013-03-13 04:07:00,39.0,16.2,29.83,WNW,286,3.6,5.4,39,0.00,,---,0.00,VWS V14.01,2013-03-13 08:07:00,
2013-03-13 04:12:00,39.2,16.3,29.85,North,357,0.0,2.2,39,0.00,,---,0.00,VWS V14.01,2013-03-13 08:12:00,
2013-03-13 04:17:00,39.6,16.7,29.85,WSW,255,2.7,4.0,39,0.00,,---,0.00,VWS V14.01,2013-03-13 08:17:00,
2013-03-13 04:22:00,39.6,16.7,29.85,WNW,303,0.0,0.0,39,0.00,,---,0.00,VWS V14.01,2013-03-13 08:22:00,
2013-03-13 04:27:00,39.4,16.5,29.85,WNW,303,0.0,2.2,39,0.00,,---,0.00,VWS V14.01,2013-03-13 08:27:00,
2013-03-13 04:32:00,39.2,16.3,29.85,SW,226,0.0,0.0,39,0.00,,---,0.00,VWS V14.01,2013-03-13 08:32:00,
2013-03-13 04:37:00,39.2,16.3,29.85,West,260,0.0,0.0,39,0.00,,---,0.00,VWS V14.01,2013-03-13 08:37:00,
2013-03-13 04:42:00,38.8,16.0,29.85,West,260,0.0,0.0,39,0.00,,---,0.00,VWS V14.01,2013-03-13 08:42:00,
2013-03-13 04:47:00,38.7,15.9,29.85,West,261,0.0,0.0,39,0.00,,---,0.00,VWS V14.01,2013-03-13 08:47:00,
2013-03-13 04:52:00,38.1,15.9,29.85,West,261,0.0,0.0,40,0.00,,---,0.00,VWS V14.01,2013-03-13 08:52:00,
2013-03-13 04:57:00,37.8,15.6,29.85,West,261,0.0,0.0,40,0.00,,---,0.00,VWS V14.01,2013-03-13 08:57:00,
2013-03-13 05:02:00,37.2,15.1,29.85,West,261,0.0,0.0,40,0.00,,---,0.00,VWS V14.01,2013-03-13 09:02:00,
2013-03-13 05:07:00,36.9,14.8,29.85,West,261,0.0,0.0,40,0.00,,---,0.00,VWS V14.01,2013-03-13 09:07:00,
2013-03-13 05:12:00,36.7,14.6,29.85,West,260,0.0,0.0,40,0.00,,---,0.00,VWS V14.01,2013-03-13 09:12:00,
2013-03-13 05:17:00,36.1,14.7,29.85,West,261,0.0,0.0,41,0.00,,---,0.00,VWS V14.01,2013-03-13 09:17:00,
2013-03-13 05:22:00,35.8,14.4,29.85,West,261,0.0,0.0,41,0.00,,---,0.00,VWS V14.01,2013-03-13 09:22:00,
2013-03-13 05:27:00,35.2,14.5,29.85,West,260,0.0,0.0,42,0.00,,---,0.00,VWS V14.01,2013-03-13 09:27:00,
2013-03-13 05:32:00,34.9,14.1,29.85,West,261,0.0,0.0,42,0.00,,---,0.00,VWS V14.01,2013-03-13 09:32:00,
2013-03-13 05:37:00,34.5,13.8,29.85,West,261,0.0,0.0,42,0.00,,---,0.00,VWS V14.01,2013-03-13 09:37:00,
2013-03-13 05:42:00,34.5,14.3,29.85,West,261,0.0,0.0,43,0.00,,---,0.00,VWS V14.01,2013-03-13 09:42:00,
2013-03-13 05:47:00,34.5,14.9,29.85,West,261,0.0,0.0,44,0.00,,---,0.00,VWS V14.01,2013-03-13 09:47:00,
2013-03-13 05:52:00,34.3,15.2,29.85,West,261,0.0,0.0,45,0.00,,---,0.00,VWS V14.01,2013-03-13 09:52:00,
2013-03-13 05:57:00,34.3,15.7,29.85,West,261,0.0,0.0,46,0.00,,---,0.00,VWS V14.01,2013-03-13 09:57:00,
2013-03-13 06:02:00,34.0,15.4,29.85,West,261,0.0,0.0,46,0.00,,---,0.00,VWS V14.01,2013-03-13 10:02:00,
2013-03-13 06:07:00,33.8,15.2,29.85,West,261,0.0,0.0,46,0.00,,---,0.00,VWS V14.01,2013-03-13 10:07:00,
2013-03-13 06:12:00,33.8,15.7,29.85,West,261,0.0,0.0,47,0.00,,---,0.00,VWS V14.01,2013-03-13 10:12:00,
2013-03-13 06:17:00,33.6,16.0,29.85,West,260,0.0,0.0,48,0.00,,---,0.00,VWS V14.01,2013-03-13 10:17:00,
2013-03-13 06:22:00,33.4,16.4,29.85,West,261,0.0,0.0,49,0.00,,---,0.00,VWS V14.01,2013-03-13 10:22:00,
2013-03-13 06:27:00,33.4,16.8,29.85,West,260,0.0,0.0,50,0.00,,---,0.00,VWS V14.01,2013-03-13 10:27:00,
2013-03-13 06:32:00,33.3,16.6,29.85,West,260,0.0,0.0,50,0.00,,---,0.00,VWS V14.01,2013-03-13 10:32:00,
2013-03-13 06:37:00,33.3,17.1,29.85,West,261,0.0,0.0,51,0.00,,---,0.00,VWS V14.01,2013-03-13 10:37:00,
2013-03-13 06:42:00,33.1,16.9,29.85,West,260,0.0,0.0,51,0.00,,---,0.00,VWS V14.01,2013-03-13 10:42:00,
2013-03-13 06:47:00,32.9,16.8,29.85,West,260,0.0,0.0,51,0.00,,---,0.00,VWS V14.01,2013-03-13 10:47:00,
2013-03-13 06:52:00,32.7,16.6,29.85,West,261,0.0,0.0,51,0.00,,---,0.00,VWS V14.01,2013-03-13 10:52:00,
2013-03-13 06:57:00,32.7,16.6,29.85,West,261,0.0,0.0,51,0.00,,---,0.00,VWS V14.01,2013-03-13 10:57:00,
2013-03-13 07:02:00,32.5,16.4,29.85,West,261,0.0,0.0,51,0.00,,---,0.00,VWS V14.01,2013-03-13 11:02:00,
2013-03-13 07:07:00,32.5,16.4,29.85,West,261,0.0,0.0,51,0.00,,---,0.00,VWS V14.01,2013-03-13 11:07:00,
2013-03-13 07:12:00,32.4,16.7,29.85,West,261,0.0,0.0,52,0.00,,---,0.00,VWS V14.01,2013-03-13 11:12:00,
2013-03-13 07:17:00,32.4,16.7,29.85,West,260,0.0,0.0,52,0.00,,---,0.00,VWS V14.01,2013-03-13 11:17:00,
2013-03-13 07:22:00,32.5,16.9,29.85,West,261,0.0,0.0,52,0.00,,---,0.00,VWS V14.01,2013-03-13 11:22:00,
2013-03-13 07:27:00,32.5,16.9,29.85,West,261,0.0,0.0,52,0.00,,---,0.00,VWS V14.01,2013-03-13 11:27:00,
2013-03-13 07:32:00,32.7,17.5,29.85,West,260,2.7,2.7,53,0.00,,---,0.00,VWS V14.01,2013-03-13 11:32:00,
2013-03-13 07:37:00,32.9,16.8,29.85,WSW,258,2.2,2.7,51,0.00,,---,0.00,VWS V14.01,2013-03-13 11:37:00,
2013-03-13 07:42:00,33.1,16.5,29.88,SW,233,2.2,2.7,50,0.00,,---,0.00,VWS V14.01,2013-03-13 11:42:00,
2013-03-13 07:47:00,33.4,16.4,29.88,SW,232,0.0,0.0,49,0.00,,---,0.00,VWS V14.01,2013-03-13 11:47:00,
2013-03-13 07:52:00,33.6,15.1,29.88,SW,216,5.8,5.8,46,0.00,,---,0.00,VWS V14.01,2013-03-13 11:52:00,
2013-03-13 07:57:00,34.0,14.4,29.85,SW,234,3.1,3.6,44,0.00,,---,0.00,VWS V14.01,2013-03-13 11:57:00,
2013-03-13 08:02:00,34.5,13.8,29.85,SW,226,3.1,3.1,42,0.00,,---,0.00,VWS V14.01,2013-03-13 12:02:00,
2013-03-13 08:07:00,35.1,13.8,29.85,WSW,243,2.7,3.6,41,0.00,,---,0.00,VWS V14.01,2013-03-13 12:07:00,
2013-03-13 08:12:00,35.4,14.1,29.85,WSW,244,3.1,3.1,41,0.00,,---,0.00,VWS V14.01,2013-03-13 12:12:00,
2013-03-13 08:17:00,36.0,14.0,29.85,WSW,244,3.1,3.6,40,0.00,,---,0.00,VWS V14.01,2013-03-13 12:17:00,
2013-03-13 08:22:00,36.3,14.3,29.85,WSW,238,4.0,4.0,40,0.00,,---,0.00,VWS V14.01,2013-03-13 12:22:00,
2013-03-13 08:27:00,36.7,14.6,29.85,SW,226,3.6,3.6,40,0.00,,---,0.00,VWS V14.01,2013-03-13 12:27:00,
2013-03-13 08:32:00,36.9,14.8,29.85,WSW,247,4.9,4.9,40,0.00,,---,0.00,VWS V14.01,2013-03-13 12:32:00,
2013-03-13 08:37:00,37.2,15.1,29.85,SW,229,4.9,4.9,40,0.00,,---,0.00,VWS V14.01,2013-03-13 12:37:00,
2013-03-13 08:42:00,37.6,14.9,29.88,WSW,248,4.9,5.8,39,0.00,,---,0.00,VWS V14.01,2013-03-13 12:42:00,
2013-03-13 08:47:00,38.1,15.4,29.88,West,259,4.0,5.8,39,0.00,,---,0.00,VWS V14.01,2013-03-13 12:47:00,
2013-03-13 08:52:00,38.5,15.7,29.88,SW,226,3.1,5.4,39,0.00,,---,0.00,VWS V14.01,2013-03-13 12:52:00,
2013-03-13 08:57:00,38.8,16.0,29.85,WSW,252,3.6,7.2,39,0.00,,---,0.00,VWS V14.01,2013-03-13 12:57:00,
2013-03-13 09:02:00,39.2,16.3,29.85,WSW,239,4.9,7.6,39,0.00,,---,0.00,VWS V14.01,2013-03-13 13:02:00,
2013-03-13 09:07:00,39.6,16.7,29.85,SW,227,5.4,6.3,39,0.00,,---,0.00,VWS V14.01,2013-03-13 13:07:00,
2013-03-13 09:12:00,39.9,17.0,29.85,WSW,251,5.8,5.8,39,0.00,,---,0.00,VWS V14.01,2013-03-13 13:12:00,
2013-03-13 09:17:00,40.3,17.3,29.85,SSW,210,6.3,6.3,39,0.00,,---,0.00,VWS V14.01,2013-03-13 13:17:00,
2013-03-13 09:22:00,40.5,17.5,29.85,SSW,210,3.1,3.6,39,0.00,,---,0.00,VWS V14.01,2013-03-13 13:22:00,
2013-03-13 09:27:00,41.0,18.0,29.85,SW,223,8.1,8.1,39,0.00,,---,0.00,VWS V14.01,2013-03-13 13:27:00,
2013-03-13 09:32:00,41.2,18.1,29.85,WNW,289,5.4,6.3,39,0.00,,---,0.00,VWS V14.01,2013-03-13 13:32:00,
2013-03-13 09:37:00,41.5,18.4,29.85,SW,233,5.4,5.8,39,0.00,,---,0.00,VWS V14.01,2013-03-13 13:37:00,
2013-03-13 09:42:00,41.9,18.2,29.85,North,8,3.6,5.4,38,0.00,,---,0.00,VWS V14.01,2013-03-13 13:42:00,
2013-03-13 09:47:00,41.9,18.2,29.85,NNW,346,4.9,6.3,38,0.00,,---,0.00,VWS V14.01,2013-03-13 13:47:00,
2013-03-13 09:52:00,42.4,18.6,29.85,WSW,238,4.9,5.4,38,0.00,,---,0.00,VWS V14.01,2013-03-13 13:52:00,
2013-03-13 09:57:00,42.8,19.0,29.85,SW,233,4.0,6.3,38,0.00,,---,0.00,VWS V14.01,2013-03-13 13:57:00,
2013-03-13 10:02:00,43.0,19.1,29.85,SW,236,4.9,8.1,38,0.00,,---,0.00,VWS V14.01,2013-03-13 14:02:00,
2013-03-13 10:07:00,43.5,19.6,29.85,WNW,284,5.8,5.8,38,0.00,,---,0.00,VWS V14.01,2013-03-13 14:07:00,
2013-03-13 10:12:00,43.5,19.6,29.85,NNE,18,2.2,5.8,38,0.00,,---,0.00,VWS V14.01,2013-03-13 14:12:00,
2013-03-13 10:17:00,43.7,19.8,29.85,SW,233,4.9,5.8,38,0.00,,---,0.00,VWS V14.01,2013-03-13 14:17:00,
2013-03-13 10:22:00,44.2,20.3,29.85,West,264,5.8,8.3,38,0.00,,---,0.00,VWS V14.01,2013-03-13 14:22:00,
2013-03-13 10:27:00,44.2,20.3,29.85,WSW,239,4.0,4.0,38,0.00,,---,0.00,VWS V14.01,2013-03-13 14:27:00,
2013-03-13 10:32:00,44.2,20.3,29.85,West,260,8.1,8.1,38,0.00,,---,0.00,VWS V14.01,2013-03-13 14:32:00,
2013-03-13 10:37:00,44.8,20.7,29.85,SW,234,3.6,4.9,38,0.00,,---,0.00,VWS V14.01,2013-03-13 14:37:00,
2013-03-13 10:42:00,45.3,21.2,29.85,West,270,2.7,5.8,38,0.00,,---,0.00,VWS V14.01,2013-03-13 14:42:00,
2013-03-13 10:47:00,45.7,21.5,29.85,North,357,3.6,6.3,38,0.00,,---,0.00,VWS V14.01,2013-03-13 14:47:00,
2013-03-13 10:52:00,45.7,21.5,29.85,SW,231,7.2,7.2,38,0.00,,---,0.00,VWS V14.01,2013-03-13 14:52:00,
2013-03-13 10:57:00,46.0,21.9,29.85,West,279,2.7,6.3,38,0.00,,---,0.00,VWS V14.01,2013-03-13 14:57:00,
2013-03-13 11:02:00,46.0,21.9,29.85,SW,223,8.7,8.7,38,0.00,,---,0.00,VWS V14.01,2013-03-13 15:02:00,
2013-03-13 11:07:00,46.8,21.9,29.85,SSW,210,6.7,6.7,37,0.00,,---,0.00,VWS V14.01,2013-03-13 15:07:00,
2013-03-13 11:12:00,46.4,21.6,29.85,WSW,242,7.6,7.6,37,0.00,,---,0.00,VWS V14.01,2013-03-13 15:12:00,
2013-03-13 11:17:00,46.6,21.7,29.85,West,277,4.0,8.7,37,0.00,,---,0.00,VWS V14.01,2013-03-13 15:17:00,
2013-03-13 11:22:00,46.8,21.9,29.85,SW,226,8.1,8.1,37,0.00,,---,0.00,VWS V14.01,2013-03-13 15:22:00,
2013-03-13 11:27:00,46.8,21.9,29.85,SSW,213,7.2,7.2,37,0.00,,---,0.00,VWS V14.01,2013-03-13 15:27:00,
2013-03-13 11:32:00,47.1,22.2,29.85,SW,229,4.0,4.0,37,0.00,,---,0.00,VWS V14.01,2013-03-13 15:32:00,
2013-03-13 11:37:00,47.8,22.9,29.85,WSW,247,2.7,3.6,37,0.00,,---,0.00,VWS V14.01,2013-03-13 15:37:00,
2013-03-13 11:42:00,48.2,23.2,29.85,SSW,212,8.1,8.1,37,0.00,,---,0.00,VWS V14.01,2013-03-13 15:42:00,
2013-03-13 11:47:00,47.7,22.7,29.85,WSW,241,5.8,8.7,37,0.00,,---,0.00,VWS V14.01,2013-03-13 15:47:00,
2013-03-13 11:52:00,48.0,23.0,29.85,North,0,6.3,6.3,37,0.00,,---,0.00,VWS V14.01,2013-03-13 15:52:00,
2013-03-13 11:58:00,47.7,22.7,29.85,SSW,207,3.6,5.8,37,0.00,,---,0.00,VWS V14.01,2013-03-13 15:58:00,
2013-03-13 12:03:00,47.7,22.7,29.85,SW,217,4.0,6.3,37,0.00,,---,0.00,VWS V14.01,2013-03-13 16:03:00,
2013-03-13 12:08:00,48.0,23.0,29.85,SW,236,8.3,10.1,37,0.00,,---,0.00,VWS V14.01,2013-03-13 16:08:00,
2013-03-13 12:13:00,48.4,23.3,29.83,NNW,345,6.3,6.3,37,0.00,,---,0.00,VWS V14.01,2013-03-13 16:13:00,
2013-03-13 12:18:00,48.0,23.0,29.83,NW,320,5.8,5.8,37,0.00,,---,0.00,VWS V14.01,2013-03-13 16:18:00,
2013-03-13 12:23:00,48.6,23.5,29.83,West,266,2.2,3.6,37,0.00,,---,0.00,VWS V14.01,2013-03-13 16:23:00,
2013-03-13 12:28:00,48.7,23.6,29.83,NNW,338,3.1,3.6,37,0.00,,---,0.00,VWS V14.01,2013-03-13 16:28:00,
2013-03-13 12:33:00,48.9,23.8,29.83,SSW,204,5.8,9.6,37,0.00,,---,0.00,VWS V14.01,2013-03-13 16:33:00,
2013-03-13 12:38:00,48.6,23.5,29.83,SW,215,5.4,5.4,37,0.00,,---,0.00,VWS V14.01,2013-03-13 16:38:00,
2013-03-13 12:43:00,48.6,23.5,29.83,SW,230,8.1,8.7,37,0.00,,---,0.00,VWS V14.01,2013-03-13 16:43:00,
2013-03-13 12:48:00,48.7,23.6,29.83,WSW,251,7.6,11.0,37,0.00,,---,0.00,VWS V14.01,2013-03-13 16:48:00,
2013-03-13 12:53:00,48.6,23.5,29.83,SW,232,8.1,12.3,37,0.00,,---,0.00,VWS V14.01,2013-03-13 16:53:00,
2013-03-13 12:58:00,48.4,23.3,29.83,West,271,8.1,8.1,37,0.00,,---,0.00,VWS V14.01,2013-03-13 16:58:00,
2013-03-13 13:03:00,48.4,23.3,29.83,SSW,200,8.3,8.7,37,0.00,,---,0.00,VWS V14.01,2013-03-13 17:03:00,
2013-03-13 13:08:00,48.6,23.5,29.83,SW,216,5.8,7.2,37,0.00,,---,0.00,VWS V14.01,2013-03-13 17:08:00,
2013-03-13 13:13:00,48.7,23.6,29.83,SW,231,6.3,8.7,37,0.00,,---,0.00,VWS V14.01,2013-03-13 17:13:00,
2013-03-13 13:18:00,48.7,23.6,29.83,SW,226,5.8,8.7,37,0.00,,---,0.00,VWS V14.01,2013-03-13 17:18:00,
2013-03-13 13:23:00,48.6,23.5,29.83,WSW,238,8.7,10.1,37,0.00,,---,0.00,VWS V14.01,2013-03-13 17:23:00,
2013-03-13 13:28:00,48.7,23.6,29.83,West,262,5.8,10.1,37,0.00,,---,0.00,VWS V14.01,2013-03-13 17:28:00,
2013-03-13 13:33:00,49.1,24.0,29.83,SW,229,8.1,8.1,37,0.00,,---,0.00,VWS V14.01,2013-03-13 17:33:00,
2013-03-13 13:38:00,49.1,24.0,29.83,SW,236,10.1,10.1,37,0.00,,---,0.00,VWS V14.01,2013-03-13 17:38:00,
2013-03-13 13:43:00,49.5,24.3,29.83,SSW,210,15.4,15.4,37,0.00,,---,0.00,VWS V14.01,2013-03-13 17:43:00,
2013-03-13 13:48:00,49.8,24.6,29.83,WSW,247,4.9,5.4,37,0.00,,---,0.00,VWS V14.01,2013-03-13 17:48:00,
2013-03-13 13:53:00,50.0,24.1,29.83,WSW,243,3.6,8.7,36,0.00,,---,0.00,VWS V14.01,2013-03-13 17:53:00,
2013-03-13 13:58:00,50.7,24.8,29.80,SW,229,3.1,3.1,36,0.00,,---,0.00,VWS V14.01,2013-03-13 17:58:00,
2013-03-13 14:03:00,50.9,24.9,29.80,NW,310,2.7,3.6,36,0.00,,---,0.00,VWS V14.01,2013-03-13 18:03:00,
2013-03-13 14:08:00,50.2,24.3,29.80,West,260,4.0,6.3,36,0.00,,---,0.00,VWS V14.01,2013-03-13 18:08:00,
2013-03-13 14:13:00,48.7,23.6,29.80,WSW,242,3.1,4.0,37,0.00,,---,0.00,VWS V14.01,2013-03-13 18:13:00,
2013-03-13 14:18:00,47.8,22.9,29.80,SSW,202,10.5,10.5,37,0.00,,---,0.00,VWS V14.01,2013-03-13 18:18:00,
2013-03-13 14:23:00,48.0,23.0,29.80,SW,229,8.1,8.1,37,0.00,,---,0.00,VWS V14.01,2013-03-13 18:23:00,
2013-03-13 14:28:00,49.3,24.1,29.80,SW,219,3.6,5.8,37,0.00,,---,0.00,VWS V14.01,2013-03-13 18:28:00,
2013-03-13 14:33:00,49.8,24.6,29.80,SW,236,8.7,8.7,37,0.00,,---,0.00,VWS V14.01,2013-03-13 18:33:00,
2013-03-13 14:38:00,49.5,24.3,29.80,SW,235,3.6,3.6,37,0.00,,---,0.00,VWS V14.01,2013-03-13 18:38:00,
2013-03-13 14:43:00,48.6,23.5,29.80,SW,220,11.0,11.0,37,0.00,,---,0.00,VWS V14.01,2013-03-13 18:43:00,
2013-03-13 14:48:00,48.0,23.0,29.80,WSW,248,9.6,14.1,37,0.00,,---,0.00,VWS V14.01,2013-03-13 18:48:00,
2013-03-13 14:53:00,48.7,23.6,29.80,SW,224,5.4,5.8,37,0.00,,---,0.00,VWS V14.01,2013-03-13 18:53:00,
2013-03-13 14:58:00,48.9,23.8,29.80,SSW,205,8.3,8.3,37,0.00,,---,0.00,VWS V14.01,2013-03-13 18:58:00,
2013-03-13 15:03:00,49.1,24.0,29.80,SW,225,8.1,8.1,37,0.00,,---,0.00,VWS V14.01,2013-03-13 19:03:00,
2013-03-13 15:08:00,49.3,24.1,29.80,SSW,209,6.3,7.2,37,0.00,,---,0.00,VWS V14.01,2013-03-13 19:08:00,
2013-03-13 15:13:00,49.1,24.0,29.80,SSW,210,8.3,11.0,37,0.00,,---,0.00,VWS V14.01,2013-03-13 19:13:00,
2013-03-13 15:18:00,49.3,24.1,29.80,SW,217,6.3,6.3,37,0.00,,---,0.00,VWS V14.01,2013-03-13 19:18:00,
2013-03-13 15:23:00,49.6,24.5,29.80,SSW,211,10.1,15.0,37,0.00,,---,0.00,VWS V14.01,2013-03-13 19:23:00,
2013-03-13 15:28:00,49.3,24.1,29.80,WSW,239,5.4,8.3,37,0.00,,---,0.00,VWS V14.01,2013-03-13 19:28:00,
2013-03-13 15:33:00,50.0,24.1,29.80,SW,214,10.1,10.1,36,0.00,,---,0.00,VWS V14.01,2013-03-13 19:33:00,
2013-03-13 15:38:00,49.8,24.6,29.80,SW,229,9.2,10.1,37,0.00,,---,0.00,VWS V14.01,2013-03-13 19:38:00,
2013-03-13 15:43:00,50.5,24.6,29.80,SW,226,8.3,8.3,36,0.00,,---,0.00,VWS V14.01,2013-03-13 19:43:00,
2013-03-13 15:48:00,50.2,24.3,29.80,SSW,199,7.2,7.2,36,0.00,,---,0.00,VWS V14.01,2013-03-13 19:48:00,
2013-03-13 15:53:00,50.0,24.1,29.80,WNW,289,4.0,5.4,36,0.00,,---,0.00,VWS V14.01,2013-03-13 19:53:00,
2013-03-13 15:58:00,50.0,24.1,29.80,SSW,200,3.6,3.6,36,0.00,,---,0.00,VWS V14.01,2013-03-13 19:58:00,
2013-03-13 16:03:00,49.5,24.3,29.80,NNW,328,3.1,5.8,37,0.00,,---,0.00,VWS V14.01,2013-03-13 20:03:00,
2013-03-13 16:08:00,49.1,24.0,29.80,WSW,239,3.1,3.1,37,0.00,,---,0.00,VWS V14.01,2013-03-13 20:08:00,
2013-03-13 16:13:00,48.9,23.8,29.80,NW,312,2.7,2.7,37,0.00,,---,0.00,VWS V14.01,2013-03-13 20:13:00,
2013-03-13 16:18:00,48.9,23.8,29.80,North,0,0.0,0.0,37,0.00,,---,0.00,VWS V14.01,2013-03-13 20:18:00,
2013-03-13 16:23:00,47.8,22.9,29.80,NW,307,3.1,3.1,37,0.00,,---,0.00,VWS V14.01,2013-03-13 20:23:00,
2013-03-13 16:28:00,46.8,21.9,29.80,WNW,302,2.2,2.2,37,0.00,,---,0.00,VWS V14.01,2013-03-13 20:28:00,
2013-03-13 16:33:00,46.2,22.0,29.80,North,350,3.1,3.1,38,0.00,,---,0.00,VWS V14.01,2013-03-13 20:33:00,
2013-03-13 16:38:00,45.9,21.7,29.80,NNW,338,0.0,0.0,38,0.00,,---,0.00,VWS V14.01,2013-03-13 20:38:00,
2013-03-13 16:43:00,45.9,21.7,29.80,North,353,0.0,0.0,38,0.00,,---,0.00,VWS V14.01,2013-03-13 20:43:00,
2013-03-13 16:48:00,45.3,21.2,29.80,NNW,338,0.0,4.0,38,0.00,,---,0.00,VWS V14.01,2013-03-13 20:48:00,
2013-03-13 16:53:00,43.7,19.8,29.80,North,10,0.0,0.0,38,0.00,,---,0.00,VWS V14.01,2013-03-13 20:53:00,
2013-03-13 16:58:00,43.5,19.6,29.80,West,279,4.0,4.0,38,0.00,,---,0.00,VWS V14.01,2013-03-13 20:58:00,
2013-03-13 17:03:00,43.2,19.3,29.80,SW,235,3.1,4.9,38,0.00,,---,0.00,VWS V14.01,2013-03-13 21:03:00,
2013-03-13 17:08:00,42.4,18.6,29.80,WSW,249,8.3,8.7,38,0.00,,---,0.00,VWS V14.01,2013-03-13 21:08:00,
2013-03-13 17:13:00,41.9,18.8,29.83,WSW,241,8.1,12.3,39,0.00,,---,0.00,VWS V14.01,2013-03-13 21:13:00,
2013-03-13 17:18:00,41.5,18.4,29.83,WNW,301,2.2,5.4,39,0.00,,---,0.00,VWS V14.01,2013-03-13 21:18:00,
2013-03-13 17:23:00,41.5,18.4,29.83,WSW,252,7.6,8.7,39,0.00,,---,0.00,VWS V14.01,2013-03-13 21:23:00,
2013-03-13 17:28:00,41.0,18.0,29.83,WNW,290,8.1,8.1,39,0.00,,---,0.00,VWS V14.01,2013-03-13 21:28:00,
2013-03-13 17:33:00,39.9,17.0,29.83,SW,231,7.2,7.2,39,0.00,,---,0.00,VWS V14.01,2013-03-13 21:33:00,
2013-03-13 17:38:00,39.2,16.3,29.83,WSW,252,3.1,3.1,39,0.00,,---,0.00,VWS V14.01,2013-03-13 21:38:00,
2013-03-13 17:43:00,38.7,15.9,29.83,SW,216,2.2,2.2,39,0.00,,---,0.00,VWS V14.01,2013-03-13 21:43:00,
2013-03-13 17:48:00,39.0,16.8,29.83,WNW,288,3.6,3.6,40,0.00,,---,0.00,VWS V14.01,2013-03-13 21:48:00,
2013-03-13 17:53:00,39.4,16.5,29.83,WSW,241,0.0,3.1,39,0.00,,---,0.00,VWS V14.01,2013-03-13 21:53:00,
2013-03-13 17:58:00,39.6,16.7,29.83,SW,225,0.0,2.7,39,0.00,,---,0.00,VWS V14.01,2013-03-13 21:58:00,
2013-03-13 18:03:00,39.6,16.7,29.83,WSW,252,0.0,0.0,39,0.00,,---,0.00,VWS V14.01,2013-03-13 22:03:00,
2013-03-13 18:08:00,39.7,16.8,29.83,SW,224,0.0,0.0,39,0.00,,---,0.00,VWS V14.01,2013-03-13 22:08:00,
2013-03-13 18:13:00,39.7,16.8,29.83,SW,226,0.0,0.0,39,0.00,,---,0.00,VWS V14.01,2013-03-13 22:13:00,
2013-03-13 18:18:00,39.7,16.8,29.83,SW,235,0.0,0.0,39,0.00,,---,0.00,VWS V14.01,2013-03-13 22:18:00,
2013-03-13 18:23:00,39.7,16.8,29.83,WSW,237,0.0,0.0,39,0.00,,---,0.00,VWS V14.01,2013-03-13 22:23:00,
2013-03-13 18:28:00,40.1,17.1,29.83,SW,224,3.6,3.6,39,0.00,,---,0.00,VWS V14.01,2013-03-13 22:28:00,
2013-03-13 18:33:00,40.5,17.5,29.83,WSW,249,0.0,2.7,39,0.00,,---,0.00,VWS V14.01,2013-03-13 22:33:00,
2013-03-13 18:38:00,40.5,17.5,29.83,SW,221,0.0,0.0,39,0.00,,---,0.00,VWS V14.01,2013-03-13 22:38:00,
2013-03-13 18:43:00,39.7,16.8,29.83,SSW,213,5.4,5.4,39,0.00,,---,0.00,VWS V14.01,2013-03-13 22:43:00,
2013-03-13 18:48:00,39.4,16.5,29.83,SW,217,3.6,4.0,39,0.00,,---,0.00,VWS V14.01,2013-03-13 22:48:00,
2013-03-13 18:53:00,39.0,16.2,29.83,WSW,238,2.2,5.8,39,0.00,,---,0.00,VWS V14.01,2013-03-13 22:53:00,
2013-03-13 18:58:00,38.7,15.9,29.83,SW,222,0.0,4.5,39,0.00,,---,0.00,VWS V14.01,2013-03-13 22:58:00,
2013-03-13 19:03:00,38.5,15.7,29.83,SW,227,0.0,0.0,39,0.00,,---,0.00,VWS V14.01,2013-03-13 23:03:00,
2013-03-13 19:08:00,38.1,15.4,29.83,SW,228,0.0,0.0,39,0.00,,---,0.00,VWS V14.01,2013-03-13 23:08:00,
2013-03-13 19:13:00,37.8,15.6,29.83,SW,228,0.0,0.0,40,0.00,,---,0.00,VWS V14.01,2013-03-13 23:13:00,
2013-03-13 19:18:00,37.8,15.6,29.83,SW,228,0.0,0.0,40,0.00,,---,0.00,VWS V14.01,2013-03-13 23:18:00,
2013-03-13 19:23:00,37.8,15.6,29.83,SW,225,0.0,0.0,40,0.00,,---,0.00,VWS V14.01,2013-03-13 23:23:00,
2013-03-13 19:28:00,37.8,15.6,29.83,SW,222,0.0,0.0,40,0.00,,---,0.00,VWS V14.01,2013-03-13 23:28:00,
2013-03-13 19:33:00,37.6,15.5,29.83,SW,221,0.0,0.0,40,0.00,,---,0.00,VWS V14.01,2013-03-13 23:33:00,
2013-03-13 19:38:00,37.0,15.0,29.83,SW,221,0.0,0.0,40,0.00,,---,0.00,VWS V14.01,2013-03-13 23:38:00,
2013-03-13 19:43:00,36.7,14.6,29.83,SW,221,0.0,0.0,40,0.00,,---,0.00,VWS V14.01,2013-03-13 23:43:00,
2013-03-13 19:48:00,36.1,14.2,29.83,SW,221,0.0,0.0,40,0.00,,---,0.00,VWS V14.01,2013-03-13 23:48:00,
2013-03-13 19:53:00,35.8,13.8,29.83,SW,221,0.0,0.0,40,0.00,,---,0.00,VWS V14.01,2013-03-13 23:53:00,
2013-03-13 19:58:00,35.6,14.2,29.83,SW,221,0.0,0.0,41,0.00,,---,0.00,VWS V14.01,2013-03-13 23:58:00,
2013-03-13 20:03:00,36.3,14.3,29.83,WSW,246,3.6,7.6,40,0.00,,---,0.00,VWS V14.01,2013-03-14 00:03:00,
2013-03-13 20:08:00,37.4,15.3,29.83,West,260,2.7,2.7,40,0.00,,---,0.00,VWS V14.01,2013-03-14 00:08:00,
2013-03-13 20:13:00,38.5,15.7,29.85,SW,235,4.0,4.0,39,0.00,,---,0.00,VWS V14.01,2013-03-14 00:13:00,
2013-03-13 20:18:00,38.5,15.7,29.85,WSW,252,2.2,3.1,39,0.00,,---,0.00,VWS V14.01,2013-03-14 00:18:00,
2013-03-13 20:23:00,38.7,15.9,29.85,WSW,255,4.0,4.9,39,0.00,,---,0.00,VWS V14.01,2013-03-14 00:23:00,
2013-03-13 20:28:00,38.7,15.9,29.83,SW,221,4.0,5.4,39,0.00,,---,0.00,VWS V14.01,2013-03-14 00:28:00,
2013-03-13 20:33:00,38.7,15.9,29.83,SW,225,4.0,4.0,39,0.00,,---,0.00,VWS V14.01,2013-03-14 00:33:00,
2013-03-13 20:38:00,38.7,15.9,29.83,WSW,254,3.6,5.4,39,0.00,,---,0.00,VWS V14.01,2013-03-14 00:38:00,
2013-03-13 20:43:00,38.5,15.7,29.85,WSW,240,8.1,8.1,39,0.00,,---,0.00,VWS V14.01,2013-03-14 00:43:00,
2013-03-13 20:48:00,38.7,15.9,29.85,SW,223,4.0,4.0,39,0.00,,---,0.00,VWS V14.01,2013-03-14 00:48:00,
2013-03-13 20:53:00,38.5,15.7,29.85,WSW,258,4.0,5.8,39,0.00,,---,0.00,VWS V14.01,2013-03-14 00:53:00,
2013-03-13 20:58:00,38.5,15.7,29.85,SSW,196,5.8,5.8,39,0.00,,---,0.00,VWS V14.01,2013-03-14 00:58:00,
2013-03-13 21:03:00,38.3,15.5,29.85,SSW,204,6.3,8.3,39,0.00,,---,0.00,VWS V14.01,2013-03-14 01:03:00,
2013-03-13 21:08:00,38.1,15.4,29.85,SW,228,5.4,5.4,39,0.00,,---,0.00,VWS V14.01,2013-03-14 01:08:00,
2013-03-13 21:13:00,37.9,15.2,29.85,SW,227,5.8,7.6,39,0.00,,---,0.00,VWS V14.01,2013-03-14 01:13:00,
2013-03-13 21:18:00,37.8,15.0,29.85,SW,231,4.5,4.5,39,0.00,,---,0.00,VWS V14.01,2013-03-14 01:18:00,
2013-03-13 21:23:00,37.6,14.9,29.85,WSW,248,3.6,4.0,39,0.00,,---,0.00,VWS V14.01,2013-03-14 01:23:00,
2013-03-13 21:28:00,37.6,14.9,29.85,SW,233,2.7,4.9,39,0.00,,---,0.00,VWS V14.01,2013-03-14 01:28:00,
2013-03-13 21:33:00,37.6,14.9,29.85,West,259,6.3,6.3,39,0.00,,---,0.00,VWS V14.01,2013-03-14 01:33:00,
2013-03-13 21:38:00,37.6,14.9,29.85,SW,228,2.7,2.7,39,0.00,,---,0.00,VWS V14.01,2013-03-14 01:38:00,
2013-03-13 21:43:00,37.6,14.9,29.85,SW,236,2.2,6.3,39,0.00,,---,0.00,VWS V14.01,2013-03-14 01:43:00,
2013-03-13 21:48:00,37.4,14.7,29.85,WSW,244,5.4,5.4,39,0.00,,---,0.00,VWS V14.01,2013-03-14 01:48:00,
2013-03-13 21:53:00,37.6,14.9,29.85,West,268,7.6,7.6,39,0.00,,---,0.00,VWS V14.01,2013-03-14 01:53:00,
2013-03-13 21:58:00,37.4,14.7,29.85,SW,235,3.1,5.4,39,0.00,,---,0.00,VWS V14.01,2013-03-14 01:58:00,
2013-03-13 22:03:00,37.0,15.0,29.85,WSW,247,5.4,5.8,40,0.00,,---,0.00,VWS V14.01,2013-03-14 02:03:00,
2013-03-13 22:08:00,37.0,15.0,29.85,WSW,256,6.3,6.3,40,0.00,,---,0.00,VWS V14.01,2013-03-14 02:08:00,
2013-03-13 22:13:00,36.9,14.8,29.88,WSW,249,0.0,0.0,40,0.00,,---,0.00,VWS V14.01,2013-03-14 02:13:00,
2013-03-13 22:18:00,36.9,14.8,29.88,WSW,238,6.3,7.6,40,0.00,,---,0.00,VWS V14.01,2013-03-14 02:18:00,
2013-03-13 22:23:00,37.0,15.0,29.88,West,262,4.0,5.4,40,0.00,,---,0.00,VWS V14.01,2013-03-14 02:23:00,
2013-03-13 22:28:00,36.9,14.8,29.88,WSW,255,8.1,8.7,40,0.00,,---,0.00,VWS V14.01,2013-03-14 02:28:00,
2013-03-13 22:33:00,36.5,14.5,29.88,WSW,241,4.9,4.9,40,0.00,,---,0.00,VWS V14.01,2013-03-14 02:33:00,
2013-03-13 22:38:00,36.5,14.5,29.88,WSW,240,5.4,5.4,40,0.00,,---,0.00,VWS V14.01,2013-03-14 02:38:00,
2013-03-13 22:43:00,36.1,14.2,29.88,WSW,245,5.8,5.8,40,0.00,,---,0.00,VWS V14.01,2013-03-14 02:43:00,
2013-03-13 22:48:00,36.1,14.2,29.88,WSW,237,5.8,5.8,40,0.00,,---,0.00,VWS V14.01,2013-03-14 02:48:00,
2013-03-13 22:53:00,36.0,14.0,29.88,WSW,245,3.1,4.0,40,0.00,,---,0.00,VWS V14.01,2013-03-14 02:53:00,
2013-03-13 22:58:00,36.0,14.0,29.88,WSW,248,3.1,8.3,40,0.00,,---,0.00,VWS V14.01,2013-03-14 02:58:00,
2013-03-13 23:03:00,36.0,14.0,29.88,SSW,206,5.8,5.8,40,0.00,,---,0.00,VWS V14.01,2013-03-14 03:03:00,
2013-03-13 23:08:00,35.8,13.8,29.88,West,260,3.1,5.4,40,0.00,,---,0.00,VWS V14.01,2013-03-14 03:08:00,
2013-03-13 23:13:00,35.6,13.7,29.88,SW,219,5.4,5.4,40,0.00,,---,0.00,VWS V14.01,2013-03-14 03:13:00,
2013-03-13 23:18:00,35.4,13.5,29.88,WSW,248,5.8,5.8,40,0.00,,---,0.00,VWS V14.01,2013-03-14 03:18:00,
2013-03-13 23:23:00,35.4,13.5,29.88,WSW,237,4.9,6.3,40,0.00,,---,0.00,VWS V14.01,2013-03-14 03:23:00,
2013-03-13 23:28:00,35.1,13.2,29.88,WSW,238,3.1,3.1,40,0.00,,---,0.00,VWS V14.01,2013-03-14 03:28:00,
2013-03-13 23:33:00,35.1,13.2,29.88,WSW,241,5.4,5.8,40,0.00,,---,0.00,VWS V14.01,2013-03-14 03:33:00,
2013-03-13 23:38:00,34.7,12.9,29.88,SW,226,3.1,3.6,40,0.00,,---,0.00,VWS V14.01,2013-03-14 03:38:00,
2013-03-13 23:43:00,34.9,13.0,29.88,WSW,244,7.6,7.6,40,0.00,,---,0.00,VWS V14.01,2013-03-14 03:43:00,
2013-03-13 23:48:00,34.9,13.0,29.88,SW,222,3.1,4.9,40,0.00,,---,0.00,VWS V14.01,2013-03-14 03:48:00,
2013-03-13 23:53:00,34.5,12.7,29.88,WSW,252,4.9,4.9,40,0.00,,---,0.00,VWS V14.01,2013-03-14 03:53:00,
2013-03-13 23:58:00,34.3,12.5,29.88,SSW,204,4.0,8.1,40,0.00,,---,0.00,VWS V14.01,2013-03-14 03:58:00,